map of GYN home
GYN - Airport
Location
City:  Goiânia, Goiás, Brazil
Name:Santa Genoveva Airport
ICAO:SBGO
IATA:GYN

Details
Type:Airport (Aerodrome, Airfield)
Use:Public/Civil
Latitude:16°37'55"S (-16.632032)
Longitude:49°13'14"W (-49.220685)
Datum:WGS 1984
Elevation:2450 ft (747 m)
Variation:20.89°W (WMM2015 magnetic declination)
-0.11° annual change
Runways:1
Longest:8204 × 148 ft (2501 × 45 m), paved

Time
Time Zone:UTC-3 (DST-2)
Local Time:

Weather
METAR:SBGO 181725Z 34007KT 2000 RA SCT017 FEW025TCU BKN080 24/19 Q101 4
TAF:SBGO 180800Z 1812/1912 31005KT 7000 BKN017 TX28/1817Z TN21/1907Z PROB30 1814/1816 TS FEW025 FEW030CB
BECMG 1818/1820 36005KT 7000 SCT030
BECMG 1900/1902 06005KT 7000 SCT010
BECMG 1906/1908 00000KT 7000 FEW010
RMK PDE

Related Locations
Nearby:
Farthest:VRC: 11959 mi / 19246 km
Virac, Catanduanes Island, PH

Find:

   beyond  
but within

Other Information
Maps:
NOTAMs:
Links:
Sources:

  
flag of Brazil
flag of Goiás
flag of Goiânia
  

Sectional Chart

Flight Planning
at skyvector.com

Satellite Image

Google Maps Satellite view

 

Copyright © 2004-2017 Karl L. Swartz. All rights reserved.
The Great Circle Mapper name and logo are trademarks of the Great Circle Mapper.
All other trademarks mentioned herein belong to their respective owners.
Please see credits for attibutions and further copyright information.

  Follow gcmap on Facebook Follow gcmap on Twitter Follow gcmap on Google+ GCmap on LinkedIn

hCard Microformat

Geo Microformat